Back to Top

Language: 

My Weather Underground Personal Weather Station Historical Data with Graphs...

Delerius Weather Station Historical Data
Daily Summary for July 4, 2017 Units:  Metric    English   Both
« Previous Day
Next Day »
Daily Weekly Monthly Yearly Custom
  High: Low: Average:
Temperature: 20.9 °C 12.3 °C 16.1 °C
Dew Point: 15 °C 8.2 °C 11.9 °C
Humidity: 85 % 64 % 76 %
Wind Speed: 19.3 km/h 0 km/h 6.3 km/h
Wind Gust: 32.2 km/h - -
Wind:- - WSW
Pressure: 1020.5 hPa 1016.8 hPa -
Precipitation: 0 mm    
Historical Graphs
 
 
Tabular Data for July 4, 2017
Time Temperature Dew Point Pressure Wind Wind Speed Wind Gust Humidity Rainfall Rate (Hourly) solar Conditions
00:03 13.9 °C 8.3 °C 1020.5 hPa WNW 4.8 km/h 11.3 km/h 69 % 0 mm 0 W/m2
00:08 13.9 °C 8.3 °C 1020.5 hPa WNW 3.2 km/h 9.7 km/h 69 % 0 mm 0 W/m2
00:13 13.9 °C 8.3 °C 1020.5 hPa WNW 1.6 km/h 8 km/h 69 % 0 mm 0 W/m2
00:18 13.9 °C 8.3 °C 1020.5 hPa WNW 3.2 km/h 8 km/h 69 % 0 mm 0 W/m2
00:23 13.8 °C 8.2 °C 1020.5 hPa WNW 3.2 km/h 9.7 km/h 69 % 0 mm 0 W/m2
00:28 13.8 °C 8.2 °C 1020.2 hPa WNW 3.2 km/h 9.7 km/h 69 % 0 mm 0 W/m2
00:33 13.8 °C 8.6 °C 1020.5 hPa WNW 1.6 km/h 8 km/h 71 % 0 mm 0 W/m2
00:38 13.7 °C 8.7 °C 1020.2 hPa Calm   1.6 km/h 72 % 0 mm 0 W/m2
00:43 13.6 °C 8.7 °C 1020.2 hPa Calm   6.4 km/h 72 % 0 mm 0 W/m2
00:48 13.5 °C 8.6 °C 1020.2 hPa WNW 1.6 km/h 8 km/h 72 % 0 mm 0 W/m2
00:53 13.4 °C 8.7 °C 1020.2 hPa WNW 1.6 km/h 8 km/h 73 % 0 mm 0 W/m2
00:58 13.3 °C 8.6 °C 1020.2 hPa Calm   3.2 km/h 73 % 0 mm 0 W/m2
01:04 13.2 °C 8.7 °C 1020.2 hPa Calm   1.6 km/h 74 % 0 mm 0 W/m2
01:09 13.1 °C 8.6 °C 1020.2 hPa Calm     74 % 0 mm 0 W/m2
01:14 12.9 °C 8.4 °C 1020.2 hPa Calm     74 % 0 mm 0 W/m2
01:19 12.8 °C 8.3 °C 1020.2 hPa Calm   1.6 km/h 74 % 0 mm 0 W/m2
01:24 12.7 °C 8.4 °C 1020.2 hPa Calm   1.6 km/h 75 % 0 mm 0 W/m2
01:29 12.6 °C 8.3 °C 1020.2 hPa Calm   1.6 km/h 75 % 0 mm 0 W/m2
01:34 12.6 °C 8.5 °C 1020.2 hPa Calm   6.4 km/h 76 % 0 mm 0 W/m2
01:39 12.5 °C 8.8 °C 1020.2 hPa WNW 1.6 km/h 6.4 km/h 78 % 0 mm 0 W/m2
01:44 12.4 °C 8.7 °C 1020.2 hPa Calm   4.8 km/h 78 % 0 mm 0 W/m2
01:49 12.3 °C 8.8 °C 1020.2 hPa Calm     79 % 0 mm 0 W/m2
01:54 12.3 °C 8.8 °C 1020.2 hPa Calm     79 % 0 mm 0 W/m2
01:59 12.3 °C 8.8 °C 1019.9 hPa Calm     79 % 0 mm 0 W/m2
02:04 12.3 °C 8.6 °C 1019.9 hPa Calm     78 % 0 mm 0 W/m2
02:09 12.3 °C 8.6 °C 1019.9 hPa Calm     78 % 0 mm 0 W/m2
02:14 12.3 °C 8.6 °C 1019.9 hPa Calm   1.6 km/h 78 % 0 mm 0 W/m2
02:19 12.3 °C 8.6 °C 1019.9 hPa Calm   1.6 km/h 78 % 0 mm 0 W/m2
02:24 12.3 °C 8.6 °C 1019.9 hPa Calm   1.6 km/h 78 % 0 mm 0 W/m2
02:29 12.3 °C 8.6 °C 1019.9 hPa Calm   1.6 km/h 78 % 0 mm 0 W/m2
02:34 12.3 °C 8.4 °C 1019.9 hPa Calm     77 % 0 mm 0 W/m2
02:39 12.4 °C 8.5 °C 1019.9 hPa Calm   1.6 km/h 77 % 0 mm 0 W/m2
02:44 12.4 °C 8.5 °C 1019.9 hPa Calm   6.4 km/h 77 % 0 mm 0 W/m2
02:49 12.4 °C 8.5 °C 1019.9 hPa Calm   6.4 km/h 77 % 0 mm 0 W/m2
02:54 12.4 °C 8.3 °C 1019.9 hPa Calm   3.2 km/h 76 % 0 mm 0 W/m2
02:59 12.5 °C 8.4 °C 1019.5 hPa Calm   3.2 km/h 76 % 0 mm 0 W/m2
03:04 12.5 °C 8.4 °C 1019.5 hPa Calm     76 % 0 mm 0 W/m2
03:09 12.6 °C 8.5 °C 1019.5 hPa Calm   3.2 km/h 76 % 0 mm 0 W/m2
03:14 12.6 °C 8.5 °C 1019.5 hPa Calm   3.2 km/h 76 % 0 mm 0 W/m2
03:19 12.7 °C 9.2 °C 1019.5 hPa Calm   3.2 km/h 79 % 0 mm 0 W/m2
03:24 12.8 °C 9.4 °C 1019.5 hPa Calm   3.2 km/h 80 % 0 mm 0 W/m2
03:29 12.7 °C 9.3 °C 1019.5 hPa Calm     80 % 0 mm 0 W/m2
03:34 12.6 °C 9.2 °C 1019.5 hPa Calm     80 % 0 mm 0 W/m2
03:39 12.6 °C 9.1 °C 1019.5 hPa Calm     79 % 0 mm 0 W/m2
03:44 12.6 °C 9.2 °C 1019.5 hPa Calm     80 % 0 mm 0 W/m2
03:49 12.5 °C 8.9 °C 1019.5 hPa Calm     79 % 0 mm 0 W/m2
03:54 12.5 °C 8.9 °C 1019.5 hPa Calm     79 % 0 mm 0 W/m2
03:59 12.4 °C 8.8 °C 1019.5 hPa Calm     79 % 0 mm 0 W/m2
04:04 12.4 °C 8.8 °C 1019.5 hPa Calm     79 % 0 mm 0 W/m2
04:10 12.4 °C 8.7 °C 1019.5 hPa Calm     78 % 0 mm 0 W/m2
04:15 12.4 °C 8.7 °C 1019.5 hPa Calm     78 % 0 mm 0 W/m2
04:20 12.5 °C 8.9 °C 1019.5 hPa Calm     79 % 0 mm 0 W/m2
04:25 12.6 °C 9.1 °C 1019.5 hPa Calm     79 % 0 mm 0 W/m2
04:30 12.6 °C 9.1 °C 1019.5 hPa Calm     79 % 0 mm 0 W/m2
04:35 12.6 °C 8.9 °C 1019.5 hPa Calm     78 % 0 mm 0 W/m2
04:40 12.6 °C 9.1 °C 1019.5 hPa Calm     79 % 0 mm 0 W/m2
04:45 12.7 °C 9.5 °C 1019.5 hPa Calm     81 % 0 mm 0 W/m2
04:50 12.6 °C 9.6 °C 1019.5 hPa Calm     82 % 0 mm 0 W/m2
04:55 12.5 °C 9.7 °C 1019.5 hPa Calm   1.6 km/h 83 % 0 mm 0 W/m2
05:00 12.5 °C 9.7 °C 1019.5 hPa Calm   1.6 km/h 83 % 0 mm 5 W/m2
05:05 12.4 °C 9.6 °C 1019.2 hPa Calm     83 % 0 mm 7 W/m2
05:10 12.4 °C 9.6 °C 1019.2 hPa Calm   3.2 km/h 83 % 0 mm 7 W/m2
05:15 12.4 °C 9.6 °C 1019.2 hPa Calm   3.2 km/h 83 % 0 mm 7 W/m2
05:20 12.4 °C 9.6 °C 1019.2 hPa Calm   3.2 km/h 83 % 0 mm 9 W/m2
05:25 12.6 °C 9.8 °C 1019.2 hPa Calm   3.2 km/h 83 % 0 mm 11 W/m2
05:26 12.6 °C 9.8 °C 1019.2 hPa Calm   3.2 km/h 83 % 0 mm 12 W/m2
05:31 12.6 °C 9.6 °C 1019.2 hPa Calm     82 % 0 mm 16 W/m2
05:36 12.5 °C 9.5 °C 1019.2 hPa Calm     82 % 0 mm 19 W/m2
05:41 12.6 °C 9.6 °C 1019.2 hPa Calm   3.2 km/h 82 % 0 mm 23 W/m2
05:46 12.6 °C 9.8 °C 1019.2 hPa Calm   3.2 km/h 83 % 0 mm 32 W/m2
05:51 12.7 °C 9.9 °C 1019.2 hPa Calm     83 % 0 mm 37 W/m2
05:56 12.7 °C 9.7 °C 1019.2 hPa Calm     82 % 0 mm 30 W/m2
06:01 12.7 °C 9.7 °C 1019.2 hPa Calm     82 % 0 mm 28 W/m2
06:06 12.8 °C 9.6 °C 1019.5 hPa Calm     81 % 0 mm 25 W/m2
06:11 12.8 °C 9.6 °C 1019.5 hPa Calm   1.6 km/h 81 % 0 mm 26 W/m2
06:16 12.9 °C 9.6 °C 1019.5 hPa Calm   1.6 km/h 80 % 0 mm 33 W/m2
06:21 12.9 °C 9.3 °C 1019.5 hPa Calm     79 % 0 mm 35 W/m2
06:26 13 °C 9.4 °C 1019.5 hPa Calm     79 % 0 mm 39 W/m2
06:31 13.1 °C 9.6 °C 1019.5 hPa Calm     79 % 0 mm 40 W/m2
06:36 13.2 °C 9.4 °C 1019.5 hPa Calm     78 % 0 mm 44 W/m2
06:41 13.2 °C 9.6 °C 1019.5 hPa Calm     79 % 0 mm 40 W/m2
06:46 13.3 °C 9.7 °C 1019.5 hPa Calm     79 % 0 mm 30 W/m2
06:51 13.3 °C 9.9 °C 1019.5 hPa Calm     80 % 0 mm 33 W/m2
06:56 13.4 °C 10 °C 1019.2 hPa Calm     80 % 0 mm 47 W/m2
07:01 13.4 °C 9.8 °C 1019.2 hPa Calm   1.6 km/h 79 % 0 mm 42 W/m2
07:06 13.4 °C 9.7 °C 1019.5 hPa Calm   3.2 km/h 78 % 0 mm 37 W/m2
07:11 13.5 °C 9.7 °C 1019.2 hPa SW 1.6 km/h 9.7 km/h 78 % 0 mm 40 W/m2
07:16 13.6 °C 10 °C 1019.5 hPa SW 1.6 km/h 9.7 km/h 79 % 0 mm 47 W/m2
07:21 13.6 °C 10 °C 1019.5 hPa Calm   3.2 km/h 79 % 0 mm 47 W/m2
07:26 13.6 °C 9.7 °C 1019.5 hPa SSW 3.2 km/h 16.1 km/h 77 % 0 mm 32 W/m2
07:31 13.7 °C 9.9 °C 1019.5 hPa SSW 6.4 km/h 16.1 km/h 78 % 0 mm 42 W/m2
07:37 13.7 °C 9.7 °C 1019.5 hPa SSW 4.8 km/h 11.3 km/h 77 % 0 mm 74 W/m2
07:42 13.7 °C 9.7 °C 1019.5 hPa SSW 4.8 km/h 11.3 km/h 77 % 0 mm 44 W/m2
07:47 13.7 °C 9.7 °C 1019.5 hPa SSW 3.2 km/h 9.7 km/h 77 % 0 mm 46 W/m2
07:52 13.7 °C 9.7 °C 1019.5 hPa Calm   6.4 km/h 77 % 0 mm 54 W/m2
07:57 13.7 °C 9.9 °C 1019.5 hPa Calm   3.2 km/h 78 % 0 mm 53 W/m2
08:02 13.8 °C 9.8 °C 1019.2 hPa SSW 1.6 km/h 8 km/h 77 % 0 mm 49 W/m2
08:03 13.8 °C 9.8 °C 1019.2 hPa SSW 1.6 km/h 8 km/h 77 % 0 mm 49 W/m2
08:08 13.7 °C 9.7 °C 1019.2 hPa SSW 1.6 km/h 8 km/h 77 % 0 mm 44 W/m2
08:13 13.7 °C 9.9 °C 1019.5 hPa South 3.2 km/h 8 km/h 78 % 0 mm 37 W/m2
08:18 13.7 °C 9.9 °C 1019.5 hPa South 1.6 km/h 8 km/h 78 % 0 mm 49 W/m2
08:23 13.7 °C 9.9 °C 1019.2 hPa South 1.6 km/h 6.4 km/h 78 % 0 mm 63 W/m2
08:28 13.8 °C 10.2 °C 1019.2 hPa South 1.6 km/h 6.4 km/h 79 % 0 mm 74 W/m2
08:33 13.8 °C 10.2 °C 1019.2 hPa Calm   3.2 km/h 79 % 0 mm 83 W/m2
08:38 13.9 °C 10.1 °C 1019.2 hPa Calm   3.2 km/h 78 % 0 mm 91 W/m2
08:43 13.9 °C 10.1 °C 1019.2 hPa South 1.6 km/h 6.4 km/h 78 % 0 mm 139 W/m2
08:49 14 °C 10.1 °C 1019.2 hPa South 1.6 km/h 6.4 km/h 77 % 0 mm 149 W/m2
08:54 14.2 °C 10.2 °C 1019.2 hPa South 1.6 km/h 4.8 km/h 77 % 0 mm 163 W/m2
08:59 14.3 °C 10.3 °C 1019.2 hPa South 1.6 km/h 8 km/h 77 % 0 mm 141 W/m2
09:04 14.4 °C 10.2 °C 1019.2 hPa South 1.6 km/h 8 km/h 76 % 0 mm 114 W/m2
09:09 14.5 °C 10.3 °C 1019.2 hPa South 1.6 km/h 4.8 km/h 76 % 0 mm 93 W/m2
09:14 14.6 °C 10.4 °C 1019.2 hPa Calm   6.4 km/h 76 % 0 mm 91 W/m2
09:19 14.6 °C 10.6 °C 1019.2 hPa Calm   6.4 km/h 77 % 0 mm 109 W/m2
09:24 14.7 °C 10.9 °C 1019.2 hPa South 1.6 km/h 12.9 km/h 78 % 0 mm 127 W/m2
09:29 14.8 °C 10.8 °C 1019.2 hPa SSE 6.4 km/h 12.9 km/h 77 % 0 mm 179 W/m2
09:34 14.9 °C 11.1 °C 1019.2 hPa SSE 9.7 km/h 17.7 km/h 78 % 0 mm 176 W/m2
09:39 14.9 °C 11.1 °C 1019.2 hPa SSE 11.3 km/h 17.7 km/h 78 % 0 mm 185 W/m2
09:44 14.9 °C 11.1 °C 1019.2 hPa SSE 11.3 km/h 17.7 km/h 78 % 0 mm 155 W/m2
09:49 15 °C 11.4 °C 1019.2 hPa SSE 9.7 km/h 16.1 km/h 79 % 0 mm 120 W/m2
09:54 15 °C 11.6 °C 1019.2 hPa SSE 8 km/h 16.1 km/h 80 % 0 mm 142 W/m2
09:59 15.1 °C 11.7 °C 1019.2 hPa South 9.7 km/h 16.1 km/h 80 % 0 mm 142 W/m2
10:04 15.1 °C 11.9 °C 1019.2 hPa SSW 8 km/h 16.1 km/h 81 % 0 mm 155 W/m2
10:09 15.1 °C 11.9 °C 1018.8 hPa South 8 km/h 16.1 km/h 81 % 0 mm 207 W/m2
10:14 15.1 °C 12.1 °C 1018.8 hPa SSE 8 km/h 16.1 km/h 82 % 0 mm 214 W/m2
10:19 15.1 °C 12.1 °C 1018.8 hPa SSE 6.4 km/h 11.3 km/h 82 % 0 mm 192 W/m2
10:24 15.2 °C 12.2 °C 1018.8 hPa South 6.4 km/h 14.5 km/h 82 % 0 mm 257 W/m2
10:29 15.4 °C 12.7 °C 1018.8 hPa South 6.4 km/h 16.1 km/h 84 % 0 mm 265 W/m2
10:34 15.6 °C 12.7 °C 1018.8 hPa South 8 km/h 16.1 km/h 83 % 0 mm 285 W/m2
10:39 15.7 °C 12.8 °C 1018.8 hPa SSE 11.3 km/h 17.7 km/h 83 % 0 mm 225 W/m2
10:44 15.7 °C 13 °C 1018.8 hPa South 9.7 km/h 17.7 km/h 84 % 0 mm 202 W/m2
10:49 15.8 °C 13.1 °C 1018.8 hPa SSW 9.7 km/h 17.7 km/h 84 % 0 mm 288 W/m2
10:54 15.9 °C 13.4 °C 1018.5 hPa South 9.7 km/h 16.1 km/h 85 % 0 mm 452 W/m2
10:59 16.2 °C 13.7 °C 1018.5 hPa South 8 km/h 16.1 km/h 85 % 0 mm 448 W/m2
11:04 16.5 °C 13.8 °C 1018.5 hPa SSW 8 km/h 14.5 km/h 84 % 0 mm 406 W/m2
11:10 16.7 °C 13.8 °C 1018.5 hPa SSW 8 km/h 14.5 km/h 83 % 0 mm 308 W/m2
11:15 16.7 °C 13.6 °C 1018.5 hPa SSW 8 km/h 14.5 km/h 82 % 0 mm 290 W/m2
11:20 16.8 °C 13.9 °C 1018.5 hPa South 8 km/h 12.9 km/h 83 % 0 mm 308 W/m2
11:25 16.9 °C 13.8 °C 1018.5 hPa SSW 6.4 km/h 12.9 km/h 82 % 0 mm 264 W/m2
11:30 17 °C 14.1 °C 1018.5 hPa SSW 8 km/h 12.9 km/h 83 % 0 mm 355 W/m2
11:35 17.2 °C 14.3 °C 1018.5 hPa South 8 km/h 16.1 km/h 83 % 0 mm 668 W/m2
11:40 17.4 °C 14.5 °C 1018.2 hPa South 9.7 km/h 16.1 km/h 83 % 0 mm 438 W/m2
11:45 17.7 °C 14.4 °C 1018.5 hPa South 9.7 km/h 16.1 km/h 81 % 0 mm 253 W/m2
11:50 17.6 °C 14.1 °C 1018.2 hPa SSW 12.9 km/h 22.5 km/h 80 % 0 mm 192 W/m2
11:55 17.4 °C 14.3 °C 1018.2 hPa SSW 12.9 km/h 22.5 km/h 82 % 0 mm 274 W/m2
12:05 17.6 °C 14.5 °C 1018.2 hPa SSW 11.3 km/h 20.9 km/h 82 % 0 mm 394 W/m2
12:10 17.7 °C 14.6 °C 1018.2 hPa SSW 12.9 km/h 20.9 km/h 82 % 0 mm 241 W/m2
12:15 17.7 °C 14.4 °C 1018.2 hPa SSW 12.9 km/h 19.3 km/h 81 % 0 mm 392 W/m2
12:20 17.7 °C 14.4 °C 1018.2 hPa SSW 12.9 km/h 19.3 km/h 81 % 0 mm 387 W/m2
12:25 17.9 °C 14.6 °C 1018.2 hPa SSW 12.9 km/h 22.5 km/h 81 % 0 mm 257 W/m2
12:30 17.9 °C 14.4 °C 1018.2 hPa SSW 12.9 km/h 22.5 km/h 80 % 0 mm 163 W/m2
12:35 17.9 °C 14.6 °C 1018.2 hPa SSW 9.7 km/h 19.3 km/h 81 % 0 mm 309 W/m2
12:40 17.9 °C 14.6 °C 1018.2 hPa SSW 9.7 km/h 14.5 km/h 81 % 0 mm 411 W/m2
12:45 18.1 °C 14.8 °C 1017.8 hPa SSW 9.7 km/h 14.5 km/h 81 % 0 mm 517 W/m2
12:50 18.3 °C 15 °C 1017.8 hPa SSW 8 km/h 14.5 km/h 81 % 0 mm 659 W/m2
12:51 18.4 °C 14.9 °C 1017.8 hPa SSW 8 km/h 14.5 km/h 80 % 0 mm 721 W/m2
12:56 18.7 °C 14.6 °C 1017.8 hPa SSW 8 km/h 19.3 km/h 77 % 0 mm 515 W/m2
13:01 19 °C 14.4 °C 1017.8 hPa SW 9.7 km/h 19.3 km/h 75 % 0 mm 455 W/m2
13:06 19.3 °C 14.6 °C 1017.8 hPa SW 9.7 km/h 16.1 km/h 74 % 0 mm 464 W/m2
13:11 19.4 °C 14 °C 1017.5 hPa SW 11.3 km/h 22.5 km/h 71 % 0 mm 388 W/m2
13:16 19.7 °C 14.3 °C 1017.5 hPa SSW 11.3 km/h 22.5 km/h 71 % 0 mm 281 W/m2
13:21 19.7 °C 14.1 °C 1017.5 hPa SW 11.3 km/h 19.3 km/h 70 % 0 mm 258 W/m2
13:26 19.8 °C 14.2 °C 1017.5 hPa SW 11.3 km/h 16.1 km/h 70 % 0 mm 436 W/m2
13:31 20 °C 13.7 °C 1017.5 hPa WSW 12.9 km/h 29 km/h 67 % 0 mm 301 W/m2
13:36 20.2 °C 14.1 °C 1017.5 hPa WSW 16.1 km/h 29 km/h 68 % 0 mm 338 W/m2
13:41 20.4 °C 14.3 °C 1017.5 hPa West 14.5 km/h 25.7 km/h 68 % 0 mm 288 W/m2
13:46 20.4 °C 14.5 °C 1017.5 hPa WNW 12.9 km/h 19.3 km/h 69 % 0 mm 422 W/m2
13:51 20.6 °C 14.7 °C 1017.5 hPa WNW 11.3 km/h 20.9 km/h 69 % 0 mm 471 W/m2
13:56 20.7 °C 14.6 °C 1017.5 hPa West 12.9 km/h 22.5 km/h 68 % 0 mm 642 W/m2
14:01 20.9 °C 14.3 °C 1017.8 hPa West 11.3 km/h 22.5 km/h 66 % 0 mm 413 W/m2
14:06 20.9 °C 14.1 °C 1017.5 hPa West 11.3 km/h 19.3 km/h 65 % 0 mm 345 W/m2
14:11 20.8 °C 13.7 °C 1017.5 hPa West 14.5 km/h 25.7 km/h 64 % 0 mm 290 W/m2
14:16 20.6 °C 14 °C 1017.5 hPa West 14.5 km/h 25.7 km/h 66 % 0 mm 265 W/m2
14:22 20.4 °C 14.1 °C 1017.5 hPa West 12.9 km/h 20.9 km/h 67 % 0 mm 260 W/m2
14:27 20.3 °C 13.7 °C 1017.5 hPa West 12.9 km/h 24.1 km/h 66 % 0 mm 279 W/m2
14:32 20.4 °C 13.8 °C 1017.5 hPa West 12.9 km/h 24.1 km/h 66 % 0 mm 278 W/m2
14:37 20.4 °C 13.8 °C 1017.5 hPa West 12.9 km/h 20.9 km/h 66 % 0 mm 306 W/m2
14:42 20.4 °C 13.8 °C 1017.5 hPa WSW 12.9 km/h 20.9 km/h 66 % 0 mm 220 W/m2
14:47 20.4 °C 14.1 °C 1017.5 hPa WSW 11.3 km/h 19.3 km/h 67 % 0 mm 176 W/m2
14:52 20.4 °C 14.1 °C 1017.5 hPa WSW 11.3 km/h 20.9 km/h 67 % 0 mm 93 W/m2
14:57 20.2 °C 14.1 °C 1017.5 hPa WSW 16.1 km/h 32.2 km/h 68 % 0 mm 105 W/m2
15:07 19.6 °C 14.2 °C 1017.5 hPa WSW 14.5 km/h 25.7 km/h 71 % 0 mm 179 W/m2
15:12 19.6 °C 14 °C 1017.5 hPa WSW 12.9 km/h 22.5 km/h 70 % 0 mm 202 W/m2
15:17 19.6 °C 14 °C 1017.5 hPa West 14.5 km/h 24.1 km/h 70 % 0 mm 260 W/m2
15:22 19.7 °C 14.1 °C 1017.5 hPa West 14.5 km/h 24.1 km/h 70 % 0 mm 276 W/m2
15:27 19.8 °C 14.4 °C 1017.5 hPa West 14.5 km/h 24.1 km/h 71 % 0 mm 297 W/m2
15:32 19.9 °C 14.5 °C 1017.2 hPa West 14.5 km/h 24.1 km/h 71 % 0 mm 265 W/m2
15:37 19.8 °C 14.4 °C 1017.2 hPa West 14.5 km/h 24.1 km/h 71 % 0 mm 265 W/m2
15:42 19.6 °C 14.2 °C 1017.2 hPa WSW 16.1 km/h 29 km/h 71 % 0 mm 260 W/m2
15:47 19.5 °C 14.1 °C 1017.2 hPa West 16.1 km/h 30.6 km/h 71 % 0 mm 265 W/m2
15:52 19.5 °C 14.3 °C 1017.2 hPa West 14.5 km/h 30.6 km/h 72 % 0 mm 234 W/m2
15:57 19.5 °C 14.1 °C 1017.2 hPa West 14.5 km/h 25.7 km/h 71 % 0 mm 185 W/m2
16:02 19.4 °C 14.2 °C 1017.2 hPa West 16.1 km/h 25.7 km/h 72 % 0 mm 193 W/m2
16:07 19.4 °C 14.4 °C 1017.2 hPa West 14.5 km/h 22.5 km/h 73 % 0 mm 213 W/m2
16:12 19.4 °C 14.7 °C 1017.2 hPa West 14.5 km/h 25.7 km/h 74 % 0 mm 192 W/m2
16:17 19.3 °C 14.3 °C 1017.5 hPa West 17.7 km/h 32.2 km/h 73 % 0 mm 185 W/m2
16:22 19.2 °C 14.4 °C 1017.5 hPa West 17.7 km/h 32.2 km/h 74 % 0 mm 163 W/m2
16:27 19.1 °C 14.3 °C 1017.5 hPa West 16.1 km/h 25.7 km/h 74 % 0 mm 192 W/m2
16:32 19.1 °C 14.3 °C 1017.5 hPa West 14.5 km/h 25.7 km/h 74 % 0 mm 186 W/m2
16:37 19.1 °C 14.3 °C 1017.2 hPa West 14.5 km/h 25.7 km/h 74 % 0 mm 214 W/m2
16:42 19.1 °C 14.3 °C 1017.5 hPa West 14.5 km/h 25.7 km/h 74 % 0 mm 243 W/m2
16:47 19.2 °C 14.2 °C 1017.2 hPa West 16.1 km/h 32.2 km/h 73 % 0 mm 230 W/m2
16:52 19.3 °C 14.1 °C 1017.2 hPa West 17.7 km/h 32.2 km/h 72 % 0 mm 186 W/m2
16:57 19.2 °C 14.2 °C 1017.5 hPa West 17.7 km/h 32.2 km/h 73 % 0 mm 220 W/m2
17:02 19.1 °C 14.2 °C 1017.5 hPa West 17.7 km/h 32.2 km/h 73 % 0 mm 214 W/m2
17:08 19.1 °C 14.3 °C 1017.2 hPa WNW 16.1 km/h 32.2 km/h 74 % 0 mm 160 W/m2
17:13 19.1 °C 14.3 °C 1017.2 hPa West 16.1 km/h 30.6 km/h 74 % 0 mm 104 W/m2
17:18 18.9 °C 14.2 °C 1017.2 hPa WNW 16.1 km/h 30.6 km/h 74 % 0 mm 114 W/m2
17:23 18.9 °C 13.9 °C 1017.2 hPa West 14.5 km/h 22.5 km/h 73 % 0 mm 118 W/m2
17:28 18.8 °C 14.1 °C 1017.2 hPa West 14.5 km/h 29 km/h 74 % 0 mm 121 W/m2
17:33 18.8 °C 14.1 °C 1017.2 hPa West 14.5 km/h 29 km/h 74 % 0 mm 151 W/m2
17:38 18.8 °C 14.1 °C 1017.2 hPa West 14.5 km/h 25.7 km/h 74 % 0 mm 167 W/m2
17:43 18.9 °C 14.2 °C 1017.2 hPa West 14.5 km/h 25.7 km/h 74 % 0 mm 142 W/m2
17:44 18.9 °C 14.2 °C 1017.2 hPa West 14.5 km/h 25.7 km/h 74 % 0 mm 141 W/m2
17:49 18.9 °C 14.2 °C 1017.2 hPa West 14.5 km/h 29 km/h 74 % 0 mm 142 W/m2
17:54 18.9 °C 13.9 °C 1017.2 hPa West 16.1 km/h 29 km/h 73 % 0 mm 137 W/m2
17:59 18.9 °C 14.2 °C 1017.2 hPa West 16.1 km/h 25.7 km/h 74 % 0 mm 125 W/m2
18:04 18.9 °C 14.2 °C 1017.2 hPa West 14.5 km/h 22.5 km/h 74 % 0 mm 213 W/m2
18:09 18.9 °C 13.9 °C 1017.2 hPa West 16.1 km/h 30.6 km/h 73 % 0 mm 206 W/m2
18:14 18.9 °C 13.9 °C 1017.2 hPa West 16.1 km/h 30.6 km/h 73 % 0 mm 169 W/m2
18:19 18.9 °C 13.9 °C 1017.2 hPa West 17.7 km/h 32.2 km/h 73 % 0 mm 153 W/m2
18:24 18.8 °C 13.8 °C 1017.2 hPa West 19.3 km/h 32.2 km/h 73 % 0 mm 190 W/m2
18:29 18.7 °C 13.6 °C 1017.2 hPa West 17.7 km/h 29 km/h 72 % 0 mm 183 W/m2
18:34 18.7 °C 13.8 °C 1017.2 hPa West 16.1 km/h 29 km/h 73 % 0 mm 176 W/m2
18:39 18.7 °C 13.8 °C 1017.2 hPa West 14.5 km/h 25.7 km/h 73 % 0 mm 225 W/m2
18:44 19.1 °C 14.2 °C 1016.8 hPa WNW 14.5 km/h 24.1 km/h 73 % 0 mm 429 W/m2
18:49 19.3 °C 13.9 °C 1016.8 hPa WNW 12.9 km/h 24.1 km/h 71 % 0 mm 130 W/m2
18:54 19.3 °C 13.4 °C 1016.8 hPa West 12.9 km/h 22.5 km/h 69 % 0 mm 116 W/m2
19:00 19.2 °C 13.6 °C 1016.8 hPa West 12.9 km/h 22.5 km/h 70 % 0 mm 139 W/m2
19:05 19.1 °C 13.5 °C 1016.8 hPa WNW 11.3 km/h 20.9 km/h 70 % 0 mm 123 W/m2
19:10 19 °C 13.4 °C 1016.8 hPa WNW 12.9 km/h 20.9 km/h 70 % 0 mm 77 W/m2
19:15 18.9 °C 13.3 °C 1016.8 hPa WNW 12.9 km/h 20.9 km/h 70 % 0 mm 49 W/m2
19:20 18.8 °C 13.2 °C 1016.8 hPa West 12.9 km/h 29 km/h 70 % 0 mm 49 W/m2
19:25 18.8 °C 13.2 °C 1016.8 hPa West 11.3 km/h 29 km/h 70 % 0 mm 81 W/m2
19:30 18.8 °C 13.4 °C 1016.8 hPa West 8 km/h 17.7 km/h 71 % 0 mm 100 W/m2
19:31 18.8 °C 13.4 °C 1017.2 hPa West 8 km/h 19.3 km/h 71 % 0 mm 107 W/m2
19:36 18.8 °C 13.4 °C 1016.8 hPa West 9.7 km/h 19.3 km/h 71 % 0 mm 74 W/m2
19:41 18.8 °C 13.4 °C 1017.2 hPa West 9.7 km/h 17.7 km/h 71 % 0 mm 77 W/m2
19:46 18.7 °C 13.3 °C 1017.2 hPa West 11.3 km/h 17.7 km/h 71 % 0 mm 58 W/m2
19:51 18.7 °C 13.3 °C 1016.8 hPa West 9.7 km/h 16.1 km/h 71 % 0 mm 47 W/m2
19:56 18.7 °C 13.3 °C 1017.2 hPa West 8 km/h 16.1 km/h 71 % 0 mm 58 W/m2
20:01 18.6 °C 13.4 °C 1017.2 hPa West 6.4 km/h 14.5 km/h 72 % 0 mm 69 W/m2
20:06 18.7 °C 13.6 °C 1016.8 hPa West 3.2 km/h 9.7 km/h 72 % 0 mm 81 W/m2
20:11 18.7 °C 13.6 °C 1017.2 hPa West 3.2 km/h 9.7 km/h 72 % 0 mm 77 W/m2
20:16 18.7 °C 13.6 °C 1017.2 hPa WNW 6.4 km/h 12.9 km/h 72 % 0 mm 86 W/m2
20:21 18.7 °C 13.6 °C 1017.2 hPa WNW 8 km/h 12.9 km/h 72 % 0 mm 84 W/m2
20:26 18.8 °C 13.7 °C 1017.2 hPa WNW 6.4 km/h 11.3 km/h 72 % 0 mm 74 W/m2
20:31 18.8 °C 13.4 °C 1017.2 hPa West 6.4 km/h 11.3 km/h 71 % 0 mm 69 W/m2
20:36 18.8 °C 13.7 °C 1017.2 hPa West 8 km/h 11.3 km/h 72 % 0 mm 72 W/m2
20:41 18.8 °C 13.7 °C 1017.2 hPa WNW 6.4 km/h 12.9 km/h 72 % 0 mm 69 W/m2
20:46 18.8 °C 13.7 °C 1017.2 hPa West 6.4 km/h 12.9 km/h 72 % 0 mm 72 W/m2
20:51 18.8 °C 13.7 °C 1017.2 hPa West 6.4 km/h 14.5 km/h 72 % 0 mm 54 W/m2
20:57 18.7 °C 13.6 °C 1017.5 hPa WNW 8 km/h 14.5 km/h 72 % 0 mm 40 W/m2
21:02 18.6 °C 13.7 °C 1017.5 hPa NW 6.4 km/h 11.3 km/h 73 % 0 mm 26 W/m2
21:07 18.6 °C 13.7 °C 1017.5 hPa NW 4.8 km/h 12.9 km/h 73 % 0 mm 19 W/m2
21:12 18.4 °C 13.7 °C 1017.5 hPa NW 4.8 km/h 12.9 km/h 74 % 0 mm 18 W/m2
21:17 18.3 °C 13.6 °C 1017.5 hPa NW 6.4 km/h 12.9 km/h 74 % 0 mm 16 W/m2
21:22 18.2 °C 13.7 °C 1017.5 hPa WNW 6.4 km/h 12.9 km/h 75 % 0 mm 12 W/m2
21:27 18 °C 13.5 °C 1017.5 hPa WNW 6.4 km/h 12.9 km/h 75 % 0 mm 9 W/m2
21:32 17.9 °C 13.6 °C 1017.5 hPa WNW 4.8 km/h 11.3 km/h 76 % 0 mm 5 W/m2
21:37 17.8 °C 13.7 °C 1017.5 hPa WNW 4.8 km/h 9.7 km/h 77 % 0 mm 0 W/m2
21:42 17.7 °C 13.6 °C 1017.8 hPa WNW 4.8 km/h 9.7 km/h 77 % 0 mm 0 W/m2
21:47 17.6 °C 13.5 °C 1017.8 hPa NW 6.4 km/h 9.7 km/h 77 % 0 mm 0 W/m2
21:52 17.4 °C 13.5 °C 1017.8 hPa NW 6.4 km/h 11.3 km/h 78 % 0 mm 0 W/m2
21:57 17.3 °C 13.4 °C 1017.8 hPa WNW 4.8 km/h 11.3 km/h 78 % 0 mm 0 W/m2
22:02 17.3 °C 13.4 °C 1017.8 hPa West 4.8 km/h 11.3 km/h 78 % 0 mm 0 W/m2
22:07 17.3 °C 13.4 °C 1017.8 hPa West 1.6 km/h 8 km/h 78 % 0 mm 0 W/m2
22:12 17.2 °C 13.5 °C 1017.8 hPa Calm   3.2 km/h 79 % 0 mm 0 W/m2
22:17 17.2 °C 13.5 °C 1017.8 hPa West 1.6 km/h 6.4 km/h 79 % 0 mm 0 W/m2
22:22 17.1 °C 13.4 °C 1017.8 hPa West 3.2 km/h 8 km/h 79 % 0 mm 0 W/m2
22:27 17.1 °C 13.6 °C 1017.8 hPa SW 4.8 km/h 9.7 km/h 80 % 0 mm 0 W/m2
22:32 16.9 °C 13.2 °C 1017.8 hPa SSW 4.8 km/h 9.7 km/h 79 % 0 mm 0 W/m2
22:37 16.8 °C 13.3 °C 1017.8 hPa SSW 3.2 km/h 9.7 km/h 80 % 0 mm 0 W/m2
22:42 16.8 °C 13.3 °C 1017.8 hPa SW 4.8 km/h 8 km/h 80 % 0 mm 0 W/m2
22:47 16.7 °C 13.1 °C 1017.8 hPa SW 4.8 km/h 9.7 km/h 79 % 0 mm 0 W/m2
22:52 16.6 °C 13.1 °C 1017.8 hPa WSW 4.8 km/h 9.7 km/h 80 % 0 mm 0 W/m2
22:57 16.6 °C 13.1 °C 1018.2 hPa WSW 3.2 km/h 9.7 km/h 80 % 0 mm 0 W/m2
23:02 16.4 °C 12.9 °C 1018.2 hPa WSW 1.6 km/h 9.7 km/h 80 % 0 mm 0 W/m2
23:07 16.3 °C 12.8 °C 1018.2 hPa Calm   4.8 km/h 80 % 0 mm 0 W/m2
23:12 16.1 °C 12.8 °C 1018.2 hPa Calm   1.6 km/h 81 % 0 mm 0 W/m2
23:17 15.9 °C 12.7 °C 1018.2 hPa Calm   3.2 km/h 81 % 0 mm 0 W/m2
23:22 15.8 °C 12.7 °C 1018.2 hPa Calm   3.2 km/h 82 % 0 mm 0 W/m2
23:27 15.6 °C 12.6 °C 1018.2 hPa Calm     82 % 0 mm 0 W/m2
23:32 15.4 °C 12.5 °C 1018.2 hPa Calm     83 % 0 mm 0 W/m2
23:38 15.3 °C 12.4 °C 1018.2 hPa Calm   3.2 km/h 83 % 0 mm 0 W/m2
23:43 15.2 °C 12.5 °C 1018.2 hPa Calm   3.2 km/h 84 % 0 mm 0 W/m2
23:48 15.1 °C 12.4 °C 1018.2 hPa Calm   3.2 km/h 84 % 0 mm 0 W/m2
23:53 15 °C 12.3 °C 1018.2 hPa Calm   3.2 km/h 84 % 0 mm 0 W/m2
23:58 14.9 °C 12.4 °C 1017.8 hPa Calm   1.6 km/h 85 % 0 mm 0 W/m2
Delerius-Weather
Compliments of Weather Underground - 2.25 mb

Data updates at regular intervals.